Time;durP1;ratioP1;P1;durP2;ratioP2;P2;SDS_P1;SDS_P2;PMS_P1;PMS_P2;Temp;Humidity;BMP_temperature;BMP_pressure;BME280_temperature;BME280_humidity;BME280_pressure;Samples;Min_cycle;Max_cycle;Signal;HPM_P1;HPM_P2
2021/10/13 00:01:20;;;;;;;0.60;0.40;;;21.90;47.90;;;;;;4994411;28;20782;-60
2021/10/13 00:03:46;;;;;;;0.88;0.50;;;21.90;48.00;;;;;;4994224;28;20405;-60
2021/10/13 00:06:12;;;;;;;0.70;0.40;;;21.90;48.00;;;;;;4993525;28;20497;-60
2021/10/13 00:08:38;;;;;;;0.77;0.40;;;21.90;47.80;;;;;;4994275;28;20506;-60
2021/10/13 00:11:03;;;;;;;0.52;0.40;;;21.90;47.70;;;;;;4993798;28;20395;-62
2021/10/13 00:13:29;;;;;;;0.90;0.40;;;21.80;47.80;;;;;;4994329;28;20378;-61
2021/10/13 00:15:55;;;;;;;0.60;0.40;;;21.80;48.20;;;;;;4993976;28;20434;-60
2021/10/13 00:18:20;;;;;;;0.80;0.40;;;21.80;48.00;;;;;;4994345;28;20398;-60
2021/10/13 00:20:46;;;;;;;1.80;0.53;;;21.90;48.20;;;;;;4976358;28;20806;-59
2021/10/13 00:23:12;;;;;;;1.10;0.40;;;21.90;47.90;;;;;;4994025;28;20445;-60
2021/10/13 00:25:38;;;;;;;0.90;0.32;;;21.80;47.80;;;;;;4994007;28;20399;-60
2021/10/13 00:28:05;;;;;;;1.35;0.50;;;21.80;47.90;;;;;;4993910;28;20993;-61
2021/10/13 00:30:30;;;;;;;0.70;0.40;;;21.80;48.00;;;;;;4993720;28;20391;-60
2021/10/13 00:32:56;;;;;;;1.03;0.50;;;21.80;48.10;;;;;;4992820;28;20472;-60
2021/10/13 00:35:21;;;;;;;0.68;0.40;;;21.90;48.20;;;;;;4993641;28;20383;-60
2021/10/13 00:37:47;;;;;;;0.90;0.45;;;21.80;48.00;;;;;;4993894;28;20406;-60
2021/10/13 00:40:13;;;;;;;0.73;0.40;;;21.80;47.80;;;;;;4993723;28;20902;-62
2021/10/13 00:42:39;;;;;;;1.02;0.50;;;21.70;47.80;;;;;;4993804;28;20485;-60
2021/10/13 00:45:06;;;;;;;0.88;0.40;;;21.70;48.10;;;;;;4992873;28;20767;-60
2021/10/13 00:47:33;;;;;;;1.20;0.50;;;21.80;48.00;;;;;;4993617;28;20728;-60
2021/10/13 00:49:59;;;;;;;0.98;0.40;;;21.80;48.00;;;;;;4993433;28;20422;-60
2021/10/13 00:52:25;;;;;;;0.75;0.40;;;21.80;48.00;;;;;;4993542;28;20386;-60
2021/10/13 00:54:51;;;;;;;0.60;0.40;;;21.80;47.90;;;;;;4993006;28;20403;-60
2021/10/13 00:57:16;;;;;;;0.52;0.30;;;21.70;47.80;;;;;;4993432;28;20406;-60
2021/10/13 00:59:42;;;;;;;0.90;0.47;;;21.70;47.90;;;;;;4993419;28;20398;-60
2021/10/13 01:02:11;;;;;;;0.70;0.35;;;21.70;47.90;;;;;;4975857;28;20391;-60
2021/10/13 01:04:58;;;;;;;1.25;0.47;;;21.80;47.90;;;;;;4975798;28;20792;-60
2021/10/13 01:07:38;;;;;;;1.05;0.43;;;21.80;48.00;;;;;;4993249;28;20390;-60
2021/10/13 01:10:29;;;;;;;0.90;0.50;;;21.70;47.80;;;;;;4993120;28;20433;-61
2021/10/13 01:12:57;;;;;;;1.58;0.40;;;21.70;47.70;;;;;;4992687;28;20402;-60
2021/10/13 01:15:33;;;;;;;0.70;0.50;;;21.70;47.90;;;;;;4975442;28;20748;-60
2021/10/13 01:18:05;;;;;;;0.90;0.52;;;21.70;48.00;;;;;;4992703;28;20751;-60
2021/10/13 01:20:40;;;;;;;0.68;0.40;;;21.80;47.90;;;;;;4993059;28;20391;-60
2021/10/13 01:23:22;;;;;;;1.40;0.50;;;21.70;47.70;;;;;;4992489;28;20399;-60
2021/10/13 01:26:01;;;;;;;2.33;0.50;;;21.70;47.60;;;;;;4992928;28;20399;-60
2021/10/13 01:28:31;;;;;;;0.47;0.30;;;21.60;47.50;;;;;;4992842;28;20413;-60
2021/10/13 01:31:12;;;;;;;0.68;0.32;;;21.60;47.60;;;;;;4992387;28;20434;-60
2021/10/13 01:33:43;;;;;;;0.80;0.40;;;21.70;47.60;;;;;;4992858;28;20440;-61
2021/10/13 01:36:12;;;;;;;0.90;0.40;;;21.70;47.70;;;;;;4992751;28;20401;-60
2021/10/13 01:38:50;;;;;;;1.58;0.40;;;21.70;47.50;;;;;;4992736;28;20517;-60
2021/10/13 01:41:18;;;;;;;0.88;0.35;;;21.60;47.50;;;;;;4992751;28;20422;-60
2021/10/13 01:43:48;;;;;;;0.68;0.40;;;21.60;48.00;;;;;;4992602;28;20391;-61
2021/10/13 01:46:16;;;;;;;0.93;0.50;;;21.60;47.80;;;;;;4992312;28;20411;-60
2021/10/13 01:48:44;;;;;;;1.27;0.40;;;21.70;47.90;;;;;;4991899;28;20417;-60
2021/10/13 01:51:12;;;;;;;1.58;0.35;;;21.70;47.70;;;;;;4991608;28;20499;-60
2021/10/13 01:53:39;;;;;;;0.77;0.37;;;21.60;47.30;;;;;;4992564;28;20394;-60
2021/10/13 01:56:07;;;;;;;1.13;0.40;;;21.60;47.50;;;;;;4974881;28;20391;-60
2021/10/13 01:58:35;;;;;;;0.70;0.30;;;21.60;47.40;;;;;;4992152;28;20386;-60
2021/10/13 02:01:02;;;;;;;1.00;0.40;;;21.50;47.60;;;;;;4991715;28;20480;-62
2021/10/13 02:03:31;;;;;;;0.73;0.35;;;21.60;47.60;;;;;;4992403;28;20537;-60
2021/10/13 02:06:00;;;;;;;0.75;0.30;;;21.70;47.60;;;;;;4992251;28;20406;-62
2021/10/13 02:08:28;;;;;;;0.95;0.30;;;21.60;47.40;;;;;;4992210;28;20414;-67
2021/10/13 02:10:55;;;;;;;0.93;0.35;;;21.60;47.40;;;;;;4991698;28;20494;-61
2021/10/13 02:13:22;;;;;;;0.70;0.30;;;21.50;47.40;;;;;;4992276;28;20397;-60
2021/10/13 02:15:50;;;;;;;1.05;0.40;;;21.50;47.50;;;;;;4992261;28;20394;-62
2021/10/13 02:18:22;;;;;;;1.20;0.70;;;21.60;47.50;;;;;;4991825;28;20394;-60
2021/10/13 02:20:49;;;;;;;0.93;0.30;;;21.60;47.50;;;;;;4991997;28;20751;-60
2021/10/13 02:23:17;;;;;;;0.90;0.30;;;21.60;47.50;;;;;;4991948;28;20391;-60
2021/10/13 02:25:47;;;;;;;0.50;0.30;;;21.60;47.50;;;;;;4992120;28;20949;-60
2021/10/13 02:28:19;;;;;;;3.15;0.30;;;21.50;47.30;;;;;;4993468;28;20406;-60
2021/10/13 02:30:45;;;;;;;0.50;0.20;;;21.50;47.90;;;;;;4996228;28;20810;-60
2021/10/13 02:33:11;;;;;;;0.65;0.20;;;21.50;47.80;;;;;;4995673;28;20391;-61
2021/10/13 02:35:37;;;;;;;1.20;0.40;;;21.60;47.50;;;;;;4996107;28;20502;-60
2021/10/13 02:38:03;;;;;;;0.50;0.20;;;21.60;47.30;;;;;;4995891;28;20720;-60
2021/10/13 02:40:29;;;;;;;0.68;0.30;;;21.50;47.10;;;;;;4995964;28;20417;-60
2021/10/13 02:42:55;;;;;;;0.50;0.20;;;21.50;46.90;;;;;;4995480;28;20422;-60
2021/10/13 02:45:21;;;;;;;1.55;0.40;;;21.40;47.30;;;;;;4995828;28;20425;-60
2021/10/13 02:47:52;;;;;;;0.50;0.20;;;21.50;47.40;;;;;;4978400;28;20399;-60
2021/10/13 02:50:34;;;;;;;0.90;0.22;;;21.50;47.40;;;;;;4996034;28;20746;-60
2021/10/13 02:53:04;;;;;;;0.40;0.20;;;21.50;47.20;;;;;;4995387;28;20390;-61
2021/10/13 02:55:34;;;;;;;0.75;0.30;;;21.50;47.10;;;;;;4995743;28;20402;-61
2021/10/13 02:58:21;;;;;;;0.57;0.30;;;21.40;46.90;;;;;;4995624;28;20394;-60
2021/10/13 03:00:50;;;;;;;1.25;0.40;;;21.40;47.30;;;;;;4995630;28;20405;-60
2021/10/13 03:03:58;;;;;;;1.20;0.20;;;21.40;47.10;;;;;;4995122;28;20399;-61
2021/10/13 03:06:29;;;;;;;1.10;0.32;;;21.50;47.00;;;;;;4994853;28;20433;-61
2021/10/13 03:08:56;;;;;;;1.63;0.30;;;21.50;46.50;;;;;;4994800;28;20423;-60
2021/10/13 03:11:23;;;;;;;0.80;0.30;;;21.50;46.70;;;;;;4995459;28;20386;-60
2021/10/13 03:13:51;;;;;;;3.00;0.28;;;21.50;46.60;;;;;;4995358;28;20478;-63
2021/10/13 03:16:19;;;;;;;1.35;0.30;;;21.60;47.00;;;;;;4995261;28;20396;-62
2021/10/13 03:18:47;;;;;;;3.05;0.30;;;21.60;47.10;;;;;;4995258;28;20481;-60
2021/10/13 03:21:14;;;;;;;0.90;0.30;;;21.60;46.40;;;;;;4994656;28;20418;-60
2021/10/13 03:23:40;;;;;;;4.00;0.50;;;21.60;46.70;;;;;;4995280;28;20469;-60
2021/10/13 03:26:08;;;;;;;7.03;0.80;;;21.60;46.70;;;;;;4995091;28;20395;-60
2021/10/13 03:28:34;;;;;;;4.47;0.57;;;21.60;46.80;;;;;;4994978;28;20406;-61
2021/10/13 03:31:00;;;;;;;3.35;0.50;;;21.60;47.70;;;;;;4994677;28;20403;-62
2021/10/13 03:33:26;;;;;;;3.60;0.50;;;21.70;48.20;;;;;;4995065;28;20409;-60
2021/10/13 03:35:52;;;;;;;4.22;0.50;;;21.80;47.90;;;;;;4994906;28;20485;-60
2021/10/13 03:38:17;;;;;;;12.50;0.80;;;21.80;47.20;;;;;;4994288;28;20398;-60
2021/10/13 03:40:43;;;;;;;3.67;0.35;;;21.80;47.50;;;;;;4994604;28;20885;-60
2021/10/13 03:43:10;;;;;;;9.00;0.67;;;21.70;47.20;;;;;;4993833;28;20485;-60
2021/10/13 03:45:35;;;;;;;8.95;0.80;;;21.70;47.80;;;;;;4993989;28;20406;-60
2021/10/13 03:48:01;;;;;;;6.45;0.60;;;21.80;48.00;;;;;;4994222;28;20412;-61
2021/10/13 03:50:27;;;;;;;9.50;0.75;;;21.90;48.60;;;;;;4994133;28;20399;-60
2021/10/13 03:52:53;;;;;;;7.05;0.55;;;21.90;48.30;;;;;;4994397;28;20458;-60
2021/10/13 03:55:20;;;;;;;3.83;0.30;;;21.90;48.10;;;;;;4994263;28;20398;-62
2021/10/13 03:57:46;;;;;;;4.82;0.30;;;21.80;48.00;;;;;;4993982;28;20398;-64
2021/10/13 04:00:21;;;;;;;3.47;0.40;;;21.80;48.70;;;;;;4994276;28;20381;-61
2021/10/13 04:02:47;;;;;;;4.40;0.30;;;21.80;48.90;;;;;;4994509;28;20882;-60
2021/10/13 04:05:14;;;;;;;4.82;0.60;;;21.90;49.30;;;;;;4993718;28;20475;-60
2021/10/13 04:07:40;;;;;;;2.10;0.40;;;21.90;48.80;;;;;;4994420;28;20457;-67
2021/10/13 04:10:09;;;;;;;3.77;0.47;;;21.90;47.00;;;;;;4994208;28;20450;-65
2021/10/13 04:12:35;;;;;;;5.45;0.30;;;21.80;47.70;;;;;;4993891;28;20379;-67
2021/10/13 04:15:06;;;;;;;3.38;0.45;;;21.70;48.30;;;;;;4993641;28;20394;-67
2021/10/13 04:17:34;;;;;;;3.20;0.50;;;21.80;49.20;;;;;;4994206;28;20473;-66
2021/10/13 04:20:01;;;;;;;4.43;0.50;;;21.80;48.50;;;;;;4993877;28;20402;-65
2021/10/13 04:22:27;;;;;;;2.08;0.43;;;21.80;48.00;;;;;;4993403;28;20402;-61
2021/10/13 04:24:53;;;;;;;5.03;0.40;;;21.80;47.10;;;;;;4993718;28;20954;-60
2021/10/13 04:27:19;;;;;;;2.77;0.50;;;21.70;47.70;;;;;;4976017;28;20466;-60
2021/10/13 04:29:44;;;;;;;4.50;0.70;;;21.70;48.40;;;;;;4993785;28;20969;-66
2021/10/13 04:32:10;;;;;;;4.90;0.50;;;21.70;48.70;;;;;;4973905;28;20776;-61
2021/10/13 04:34:36;;;;;;;5.35;0.60;;;21.80;49.20;;;;;;4979607;28;20406;-60
2021/10/13 04:37:01;;;;;;;5.47;0.50;;;21.90;49.20;;;;;;4982403;28;20754;-60
2021/10/13 04:39:27;;;;;;;3.17;0.40;;;21.90;48.10;;;;;;4983847;28;20400;-60
2021/10/13 04:41:53;;;;;;;2.92;0.50;;;21.80;47.80;;;;;;4981730;28;20391;-60
2021/10/13 04:44:19;;;;;;;5.65;0.50;;;21.80;48.00;;;;;;4984922;28;20500;-60
2021/10/13 04:46:44;;;;;;;6.83;0.47;;;21.80;47.90;;;;;;4982057;28;20817;-62
2021/10/13 04:49:10;;;;;;;5.28;0.80;;;21.90;48.30;;;;;;4983896;28;20420;-61
2021/10/13 04:51:36;;;;;;;4.88;0.50;;;21.90;48.00;;;;;;4993122;28;20395;-61
2021/10/13 04:54:02;;;;;;;9.23;0.60;;;22.00;47.80;;;;;;4993704;28;20391;-60
2021/10/13 04:56:27;;;;;;;3.80;0.70;;;22.00;47.80;;;;;;4993654;28;20398;-61
2021/10/13 04:58:53;;;;;;;3.40;0.30;;;21.90;47.80;;;;;;4993445;28;20391;-62
2021/10/13 05:01:19;;;;;;;3.88;0.50;;;21.90;47.80;;;;;;4992838;28;20402;-60
2021/10/13 05:03:44;;;;;;;5.40;0.43;;;21.90;47.70;;;;;;4975422;28;20407;-63
2021/10/13 05:06:10;;;;;;;6.03;0.47;;;22.00;47.80;;;;;;4983848;28;20778;-61
2021/10/13 05:08:36;;;;;;;2.45;0.40;;;21.90;47.60;;;;;;4983203;28;20418;-65
2021/10/13 05:11:01;;;;;;;3.40;0.40;;;21.90;46.50;;;;;;4984356;28;20394;-60
2021/10/13 05:13:27;;;;;;;4.47;0.40;;;21.80;46.90;;;;;;4992871;28;20907;-60
2021/10/13 05:15:54;;;;;;;3.27;0.40;;;21.70;47.10;;;;;;4992976;28;20448;-60
2021/10/13 05:18:20;;;;;;;2.15;0.55;;;21.80;47.50;;;;;;4992964;28;20414;-60
2021/10/13 05:20:46;;;;;;;1.20;0.30;;;21.80;47.60;;;;;;4992869;28;20544;-60
2021/10/13 05:23:12;;;;;;;2.60;0.20;;;21.80;47.40;;;;;;4992067;28;20481;-60
2021/10/13 05:25:37;;;;;;;2.03;0.35;;;21.80;47.00;;;;;;4992824;28;20456;-60
2021/10/13 05:28:03;;;;;;;1.75;0.38;;;21.70;46.60;;;;;;4992660;28;20886;-60
2021/10/13 05:30:29;;;;;;;3.00;0.30;;;21.70;47.10;;;;;;4992883;28;20405;-60
2021/10/13 05:32:55;;;;;;;0.98;0.30;;;21.70;48.00;;;;;;4992659;28;20394;-60
2021/10/13 05:35:21;;;;;;;2.73;0.30;;;21.70;47.20;;;;;;4992267;28;20398;-60
2021/10/13 05:37:46;;;;;;;3.00;0.40;;;21.80;47.40;;;;;;4992146;28;20387;-60
2021/10/13 05:40:12;;;;;;;2.10;0.33;;;21.70;47.00;;;;;;4992171;28;20398;-60
2021/10/13 05:42:38;;;;;;;1.65;0.20;;;21.70;47.00;;;;;;4992703;28;20398;-60
2021/10/13 05:45:04;;;;;;;1.50;0.30;;;21.60;47.10;;;;;;4992134;28;20835;-61
2021/10/13 05:47:30;;;;;;;1.90;0.30;;;21.60;47.00;;;;;;4992691;28;20398;-60
2021/10/13 05:49:56;;;;;;;1.80;0.30;;;21.70;47.30;;;;;;4992448;28;20418;-60
2021/10/13 05:52:22;;;;;;;2.90;0.30;;;21.70;47.10;;;;;;4992557;28;20389;-60
2021/10/13 05:54:47;;;;;;;1.07;0.30;;;21.70;47.10;;;;;;4992574;28;20390;-60
2021/10/13 05:57:13;;;;;;;1.25;0.30;;;21.60;46.80;;;;;;4992062;28;20390;-60
2021/10/13 05:59:40;;;;;;;1.20;0.20;;;21.60;46.80;;;;;;4992394;28;20394;-60
2021/10/13 06:02:06;;;;;;;1.90;0.40;;;21.60;46.90;;;;;;4991806;28;20402;-60
2021/10/13 06:04:32;;;;;;;0.63;0.20;;;21.60;47.00;;;;;;4992145;28;20876;-60
2021/10/13 06:06:57;;;;;;;1.40;0.30;;;21.70;47.00;;;;;;4992294;28;20913;-60
2021/10/13 06:09:23;;;;;;;0.93;0.30;;;21.70;47.00;;;;;;4991757;28;20414;-60
2021/10/13 06:11:49;;;;;;;0.88;0.28;;;21.60;46.70;;;;;;4992294;28;20728;-60
2021/10/13 06:14:14;;;;;;;1.43;0.50;;;21.60;46.70;;;;;;4992237;28;20398;-60
2021/10/13 06:16:40;;;;;;;0.47;0.20;;;21.60;46.60;;;;;;4992252;28;20386;-60
2021/10/13 06:19:06;;;;;;;1.20;0.30;;;21.60;46.80;;;;;;4974476;28;20414;-60
2021/10/13 06:21:31;;;;;;;0.63;0.30;;;21.60;46.70;;;;;;4992130;28;20869;-60
2021/10/13 06:23:57;;;;;;;1.87;0.30;;;21.60;46.80;;;;;;4991903;28;20390;-60
2021/10/13 06:26:23;;;;;;;1.17;0.40;;;21.60;46.70;;;;;;4992113;28;20387;-60
2021/10/13 06:28:49;;;;;;;0.43;0.10;;;21.60;46.50;;;;;;4992253;28;20411;-60
2021/10/13 06:31:16;;;;;;;0.95;0.30;;;21.60;46.80;;;;;;4991656;28;20421;-60
2021/10/13 06:33:41;;;;;;;0.80;0.20;;;21.50;46.90;;;;;;4992052;28;20904;-60
2021/10/13 06:36:07;;;;;;;1.40;0.50;;;21.60;46.80;;;;;;4974552;28;20494;-60
2021/10/13 06:38:34;;;;;;;1.23;0.40;;;21.60;46.70;;;;;;4974644;28;20460;-60
2021/10/13 06:41:01;;;;;;;0.70;0.22;;;21.60;46.80;;;;;;4974542;28;20425;-60
2021/10/13 06:43:27;;;;;;;1.40;0.55;;;21.50;46.50;;;;;;4991542;28;20429;-60
2021/10/13 06:45:53;;;;;;;0.82;0.38;;;21.50;46.70;;;;;;4991819;28;20759;-60
2021/10/13 06:48:21;;;;;;;1.20;0.40;;;21.50;46.60;;;;;;4991903;28;20485;-60
2021/10/13 06:50:47;;;;;;;0.68;0.40;;;21.60;46.60;;;;;;4991922;28;20435;-60
2021/10/13 06:53:13;;;;;;;1.70;0.40;;;21.60;46.50;;;;;;4990968;28;20863;-60
2021/10/13 06:55:39;;;;;;;0.70;0.40;;;21.60;46.90;;;;;;4991291;28;20452;-60
2021/10/13 06:58:05;;;;;;;0.70;0.33;;;21.50;46.50;;;;;;4991827;28;20390;-60
2021/10/13 07:00:31;;;;;;;1.00;0.50;;;21.50;46.60;;;;;;4974360;28;20394;-60
2021/10/13 07:02:57;;;;;;;0.70;0.40;;;21.50;46.70;;;;;;4991705;28;20494;-60
2021/10/13 07:05:23;;;;;;;0.90;0.40;;;21.50;46.70;;;;;;4991318;28;20456;-60
2021/10/13 07:07:49;;;;;;;1.20;0.50;;;21.60;46.50;;;;;;4991694;28;20391;-60
2021/10/13 07:10:17;;;;;;;1.75;0.60;;;21.60;46.70;;;;;;4991642;28;20445;-60
2021/10/13 07:12:43;;;;;;;1.40;0.50;;;21.50;46.50;;;;;;4991666;28;20448;-60
2021/10/13 07:15:09;;;;;;;0.80;0.50;;;21.50;46.60;;;;;;4994068;28;20394;-60
2021/10/13 07:17:35;;;;;;;1.60;0.68;;;21.40;46.70;;;;;;4995380;28;20390;-60
2021/10/13 07:20:04;;;;;;;1.20;0.63;;;21.50;46.60;;;;;;4995538;28;20739;-60
2021/10/13 07:22:30;;;;;;;1.20;0.57;;;21.60;46.50;;;;;;4995170;28;20898;-60
2021/10/13 07:24:57;;;;;;;1.13;0.43;;;21.60;46.60;;;;;;4994889;28;20401;-60
2021/10/13 07:27:23;;;;;;;1.00;0.40;;;21.50;46.40;;;;;;4994864;28;20399;-60
2021/10/13 07:29:56;;;;;;;1.00;0.50;;;21.50;46.50;;;;;;4994941;28;20425;-60
2021/10/13 07:32:24;;;;;;;1.10;0.50;;;21.40;46.40;;;;;;4995107;28;20390;-60
2021/10/13 07:34:49;;;;;;;0.75;0.43;;;21.50;46.40;;;;;;4977512;28;20457;-60
2021/10/13 07:37:15;;;;;;;0.80;0.57;;;21.60;46.40;;;;;;4994604;28;20394;-60
2021/10/13 07:39:41;;;;;;;0.95;0.50;;;21.60;46.30;;;;;;4994912;28;20390;-60
2021/10/13 07:42:07;;;;;;;1.10;0.50;;;21.60;46.40;;;;;;4994875;28;20398;-60
2021/10/13 07:44:32;;;;;;;0.80;0.40;;;21.50;46.40;;;;;;4977129;28;20430;-60
2021/10/13 07:46:58;;;;;;;0.90;0.50;;;21.50;46.60;;;;;;4994758;28;20402;-60
2021/10/13 07:49:24;;;;;;;1.40;0.67;;;21.50;47.30;;;;;;4994228;28;20422;-60
2021/10/13 07:51:50;;;;;;;0.73;0.40;;;21.60;46.50;;;;;;4994676;28;20399;-60
2021/10/13 07:54:16;;;;;;;1.00;0.50;;;21.60;46.40;;;;;;4994711;28;20406;-60
2021/10/13 07:56:41;;;;;;;0.97;0.50;;;21.60;46.50;;;;;;4994631;28;20397;-60
2021/10/13 07:59:07;;;;;;;0.90;0.57;;;21.60;46.40;;;;;;4994288;28;20398;-60
2021/10/13 08:01:33;;;;;;;0.90;0.47;;;21.60;46.40;;;;;;4976916;28;20395;-60
2021/10/13 08:03:59;;;;;;;0.90;0.50;;;21.60;46.80;;;;;;4994469;28;20401;-60
2021/10/13 08:06:24;;;;;;;1.10;0.50;;;21.60;46.70;;;;;;4994469;28;20751;-60
2021/10/13 08:08:50;;;;;;;0.83;0.40;;;21.70;46.70;;;;;;4993845;28;20457;-60
2021/10/13 08:11:15;;;;;;;0.90;0.50;;;21.70;46.70;;;;;;4975881;28;20464;-60
2021/10/13 08:13:42;;;;;;;0.67;0.50;;;21.60;46.70;;;;;;4994046;28;20394;-60
2021/10/13 08:16:07;;;;;;;1.08;0.40;;;21.60;46.50;;;;;;4976823;28;20457;-60
2021/10/13 08:18:33;;;;;;;1.00;0.57;;;21.50;46.50;;;;;;4994035;28;20771;-60
2021/10/13 08:20:59;;;;;;;1.20;0.50;;;21.60;46.70;;;;;;4994105;28;20396;-60
2021/10/13 08:23:25;;;;;;;1.02;0.50;;;21.60;46.60;;;;;;4993615;28;20390;-60
2021/10/13 08:25:54;;;;;;;1.08;0.60;;;21.60;46.50;;;;;;4993171;28;20401;-60
2021/10/13 08:28:21;;;;;;;0.75;0.40;;;21.60;46.50;;;;;;4993968;28;20818;-60
2021/10/13 08:30:46;;;;;;;0.80;0.47;;;21.60;46.40;;;;;;4994012;28;20406;-60
2021/10/13 08:33:12;;;;;;;0.90;0.57;;;21.50;46.50;;;;;;4993708;28;20405;-60
2021/10/13 08:35:38;;;;;;;0.90;0.40;;;21.60;46.40;;;;;;4993893;28;20409;-60
2021/10/13 08:38:03;;;;;;;0.85;0.47;;;21.60;46.30;;;;;;4976070;28;20905;-60
2021/10/13 08:40:29;;;;;;;1.00;0.50;;;21.60;46.40;;;;;;4993275;28;20399;-60
2021/10/13 08:43:00;;;;;;;1.08;0.50;;;21.60;46.50;;;;;;4993716;28;20385;-60
2021/10/13 08:45:29;;;;;;;0.70;0.40;;;21.60;46.20;;;;;;4993078;28;20509;-60
2021/10/13 08:47:55;;;;;;;1.10;0.50;;;21.50;46.20;;;;;;4976232;28;20395;-60
2021/10/13 08:50:21;;;;;;;1.00;0.50;;;21.50;46.30;;;;;;4976008;28;20441;-60
2021/10/13 08:52:47;;;;;;;0.93;0.60;;;21.60;45.90;;;;;;4993109;28;20395;-60
2021/10/13 08:55:15;;;;;;;1.10;0.60;;;21.60;46.10;;;;;;4992771;28;20402;-60
2021/10/13 08:57:41;;;;;;;1.00;0.40;;;21.60;46.40;;;;;;4993500;28;20425;-60
2021/10/13 09:00:08;;;;;;;0.88;0.50;;;21.50;46.20;;;;;;4975905;28;20406;-60
2021/10/13 09:02:39;;;;;;;0.90;0.50;;;21.50;46.20;;;;;;4993448;28;20398;-60
2021/10/13 09:05:11;;;;;;;1.10;0.52;;;21.50;46.40;;;;;;4993225;28;20558;-59
2021/10/13 09:07:38;;;;;;;0.80;0.50;;;21.60;46.10;;;;;;4993163;28;20394;-57
2021/10/13 09:10:05;;;;;;;0.97;0.50;;;21.60;46.10;;;;;;4993112;28;20966;-58
2021/10/13 09:12:34;;;;;;;1.50;0.77;;;21.60;46.30;;;;;;4993226;28;20425;-57
2021/10/13 09:15:11;;;;;;;0.90;0.60;;;21.60;46.40;;;;;;4993134;28;20433;-57
2021/10/13 09:17:54;;;;;;;1.00;0.60;;;21.40;46.30;;;;;;4992963;28;20905;-58
2021/10/13 09:20:22;;;;;;;1.00;0.50;;;21.50;46.40;;;;;;4993018;28;20425;-58
2021/10/13 09:22:59;;;;;;;0.82;0.40;;;21.60;46.00;;;;;;4992963;28;20401;-57
2021/10/13 09:25:25;;;;;;;1.38;0.68;;;21.60;46.20;;;;;;4992001;28;20496;-57
2021/10/13 09:27:50;;;;;;;0.95;0.60;;;21.60;46.20;;;;;;4992619;28;20491;-58
2021/10/13 09:30:44;;;;;;;0.87;0.57;;;21.60;46.30;;;;;;4992826;28;20422;-58
2021/10/13 09:33:18;;;;;;;1.75;0.80;;;21.50;46.30;;;;;;4992419;28;20805;-57
2021/10/13 09:35:51;;;;;;;1.30;0.70;;;21.60;46.20;;;;;;4992811;28;20410;-58
2021/10/13 09:38:22;;;;;;;1.17;0.70;;;21.60;45.80;;;;;;4993054;28;20387;-57
2021/10/13 09:40:50;;;;;;;1.17;0.70;;;21.60;46.00;;;;;;4992816;28;20410;-58
2021/10/13 09:43:35;;;;;;;1.25;0.80;;;21.60;46.20;;;;;;4992528;28;20470;-57
2021/10/13 09:46:12;;;;;;;1.63;0.90;;;21.50;46.20;;;;;;4992470;28;20928;-58
2021/10/13 09:48:43;;;;;;;1.40;0.77;;;21.50;46.20;;;;;;4992658;28;20469;-57
2021/10/13 09:51:18;;;;;;;1.67;0.80;;;21.50;45.90;;;;;;4992616;28;20449;-58
2021/10/13 09:53:45;;;;;;;1.42;0.77;;;21.60;46.10;;;;;;4992550;28;20437;-57
2021/10/13 09:56:27;;;;;;;1.10;0.70;;;21.60;45.80;;;;;;4992475;28;20574;-57
2021/10/13 09:59:13;;;;;;;2.20;0.80;;;21.50;45.70;;;;;;4992398;28;20401;-58
2021/10/13 10:01:45;;;;;;;1.98;0.90;;;21.50;45.60;;;;;;4992250;28;20393;-58
2021/10/13 10:04:21;;;;;;;1.50;0.70;;;21.40;45.50;;;;;;4992353;28;20423;-58
2021/10/13 10:06:53;;;;;;;1.20;0.70;;;21.50;45.50;;;;;;4992409;28;20925;-58
2021/10/13 10:09:20;;;;;;;1.15;0.73;;;21.60;45.60;;;;;;4991887;28;20458;-58
2021/10/13 10:11:47;;;;;;;1.45;0.75;;;21.50;45.70;;;;;;4991980;28;20401;-58
2021/10/13 10:14:31;;;;;;;1.20;0.70;;;21.50;45.70;;;;;;4992178;28;20742;-58
2021/10/13 10:16:59;;;;;;;1.35;0.80;;;21.50;46.00;;;;;;4992235;28;20382;-58
2021/10/13 10:19:37;;;;;;;1.40;0.80;;;21.40;45.60;;;;;;4991752;28;20498;-58
2021/10/13 10:22:18;;;;;;;1.10;0.57;;;21.50;45.50;;;;;;4992089;28;20409;-58
2021/10/13 10:24:53;;;;;;;1.30;0.80;;;21.60;45.50;;;;;;4991847;28;20422;-58
2021/10/13 10:27:29;;;;;;;1.70;0.80;;;21.50;45.60;;;;;;4992039;28;20390;-57
2021/10/13 10:30:10;;;;;;;1.42;0.68;;;21.50;45.60;;;;;;4991969;28;20422;-58
2021/10/13 10:33:02;;;;;;;1.30;0.63;;;21.50;45.80;;;;;;4992099;28;20523;-58
2021/10/13 10:35:28;;;;;;;1.38;0.70;;;21.40;45.50;;;;;;4991122;28;20409;-58
2021/10/13 10:38:04;;;;;;;1.00;0.60;;;21.50;45.50;;;;;;4991829;28;20391;-58
2021/10/13 10:40:32;;;;;;;1.10;0.70;;;21.60;45.50;;;;;;4974119;28;20417;-58
2021/10/13 10:43:02;;;;;;;1.20;0.80;;;21.50;45.70;;;;;;4991727;28;20418;-58
2021/10/13 10:45:32;;;;;;;1.10;0.65;;;21.40;45.70;;;;;;4991462;28;20903;-58
2021/10/13 10:48:01;;;;;;;1.20;0.70;;;21.40;45.70;;;;;;4991869;28;20386;-57
2021/10/13 10:50:36;;;;;;;1.40;0.80;;;21.40;45.50;;;;;;4995224;28;20417;-58
2021/10/13 10:53:27;;;;;;;1.10;0.73;;;21.50;45.50;;;;;;4995671;28;20397;-58
2021/10/13 10:55:53;;;;;;;1.30;0.70;;;21.50;45.30;;;;;;4995849;28;20398;-57
2021/10/13 10:58:23;;;;;;;1.20;0.70;;;21.50;45.60;;;;;;4995745;28;20879;-57
2021/10/13 11:01:00;;;;;;;1.77;0.80;;;21.50;45.80;;;;;;4995686;28;20398;-58
2021/10/13 11:03:30;;;;;;;1.43;0.80;;;21.40;45.70;;;;;;4995304;28;20480;-57
2021/10/13 11:06:07;;;;;;;1.17;0.70;;;21.40;45.40;;;;;;4995566;28;20391;-58
2021/10/13 11:08:33;;;;;;;1.20;0.80;;;21.50;45.30;;;;;;4995482;28;20410;-57
2021/10/13 11:11:13;;;;;;;1.43;0.87;;;21.50;45.30;;;;;;4995429;28;20406;-57
2021/10/13 11:13:39;;;;;;;1.10;0.70;;;21.50;45.50;;;;;;4995057;28;20867;-58
2021/10/13 11:16:08;;;;;;;1.73;0.90;;;21.40;45.50;;;;;;4978020;28;20417;-58
2021/10/13 11:18:34;;;;;;;1.23;0.70;;;21.40;45.80;;;;;;4995382;28;20448;-57
2021/10/13 11:21:12;;;;;;;1.47;0.80;;;21.40;45.40;;;;;;4995283;28;20537;-57
2021/10/13 11:23:38;;;;;;;1.30;0.70;;;21.50;45.40;;;;;;4994605;28;20449;-58
2021/10/13 11:26:03;;;;;;;1.30;0.77;;;21.50;45.20;;;;;;4977516;28;20438;-57
2021/10/13 11:28:37;;;;;;;1.10;0.70;;;21.40;45.50;;;;;;4995197;28;20406;-58
2021/10/13 11:31:06;;;;;;;1.00;0.70;;;21.40;45.40;;;;;;4995184;28;20398;-58
2021/10/13 11:33:32;;;;;;;1.10;0.80;;;21.40;45.70;;;;;;4977078;28;20431;-57
2021/10/13 11:36:07;;;;;;;1.83;0.90;;;21.40;45.40;;;;;;4995013;28;20960;-58
2021/10/13 11:38:35;;;;;;;1.30;0.80;;;21.40;45.20;;;;;;4995195;28;20395;-57
2021/10/13 11:41:13;;;;;;;1.52;1.00;;;21.50;45.20;;;;;;4994844;28;20398;-65
2021/10/13 11:43:39;;;;;;;2.13;1.50;;;21.50;45.20;;;;;;4994323;28;21118;-58
2021/10/13 11:46:06;;;;;;;2.45;1.55;;;21.40;45.80;;;;;;4994647;28;20478;-58
2021/10/13 11:48:34;;;;;;;2.17;1.30;;;21.30;45.80;;;;;;4994768;28;20410;-58
2021/10/13 11:51:03;;;;;;;2.47;1.30;;;21.30;45.70;;;;;;4994690;28;20406;-65
2021/10/13 11:53:31;;;;;;;2.92;1.70;;;21.40;45.80;;;;;;4994284;28;20500;-65
2021/10/13 11:55:56;;;;;;;5.40;1.45;;;21.40;45.70;;;;;;4993953;28;20402;-65
2021/10/13 11:58:27;;;;;;;3.23;1.40;;;21.40;45.80;;;;;;4994317;28;20389;-58
2021/10/13 12:00:54;;;;;;;4.05;1.40;;;21.40;46.10;;;;;;4993136;28;20395;-58
2021/10/13 12:03:36;;;;;;;7.23;1.60;;;21.40;46.80;;;;;;4994644;28;20823;-61
2021/10/13 12:06:04;;;;;;;5.88;1.67;;;21.40;47.50;;;;;;4994342;28;20395;-58
2021/10/13 12:08:39;;;;;;;5.43;1.50;;;21.50;47.50;;;;;;4994215;28;20442;-58
2021/10/13 12:11:10;;;;;;;5.65;1.48;;;21.60;47.40;;;;;;4994209;28;20868;-58
2021/10/13 12:13:38;;;;;;;3.60;1.30;;;21.50;47.00;;;;;;4993526;28;20413;-60
2021/10/13 12:16:09;;;;;;;3.42;1.30;;;21.50;46.60;;;;;;4993843;28;20452;-58
2021/10/13 12:18:47;;;;;;;4.43;1.10;;;21.50;47.00;;;;;;4994165;28;20905;-58
2021/10/13 12:21:16;;;;;;;3.15;1.20;;;21.50;47.60;;;;;;4980690;28;20412;-58
2021/10/13 12:23:47;;;;;;;7.60;1.27;;;21.60;47.50;;;;;;4956734;28;20829;-58
2021/10/13 12:26:19;;;;;;;4.07;1.20;;;21.70;47.50;;;;;;4974639;28;20501;-58
2021/10/13 12:28:50;;;;;;;3.17;1.10;;;21.60;46.80;;;;;;4974471;28;20424;-58
2021/10/13 12:31:21;;;;;;;3.17;1.00;;;21.60;46.20;;;;;;4974646;28;20400;-58
2021/10/13 12:33:59;;;;;;;3.47;1.17;;;21.60;46.70;;;;;;4974115;28;20403;-64
2021/10/13 12:36:37;;;;;;;4.07;1.23;;;21.60;47.10;;;;;;4974481;28;20495;-59
2021/10/13 12:39:09;;;;;;;4.87;1.10;;;21.70;47.20;;;;;;4974257;28;20746;-65
2021/10/13 12:41:39;;;;;;;4.70;1.20;;;21.70;46.50;;;;;;4973927;28;20398;-62
2021/10/13 12:44:15;;;;;;;6.00;1.67;;;21.70;46.90;;;;;;4974144;28;20860;-58
2021/10/13 12:46:56;;;;;;;6.38;1.20;;;21.70;46.60;;;;;;4974344;28;20451;-58
2021/10/13 12:49:24;;;;;;;4.70;1.20;;;21.60;46.90;;;;;;4974046;28;20429;-58
2021/10/13 12:52:08;;;;;;;5.32;1.30;;;21.60;47.70;;;;;;4973723;28;20889;-59
2021/10/13 12:54:37;;;;;;;4.60;1.30;;;21.70;47.60;;;;;;4974030;28;20447;-66
2021/10/13 12:57:08;;;;;;;3.53;1.20;;;21.70;47.10;;;;;;4973927;28;20873;-58